createdAt,value
2022-10-09T00:01:39.950Z,7.50
2022-10-09T00:04:06.900Z,7.50
2022-10-09T00:06:35.577Z,7.80
2022-10-09T00:09:03.969Z,7.50
2022-10-09T00:11:32.626Z,7.50
2022-10-09T00:14:00.777Z,7.50
2022-10-09T00:16:28.790Z,7.50
2022-10-09T00:18:56.795Z,7.50
2022-10-09T00:21:33.967Z,7.50
2022-10-09T00:24:02.668Z,7.50
2022-10-09T00:26:29.839Z,7.50
2022-10-09T00:28:57.534Z,7.50
2022-10-09T00:31:24.649Z,7.50
2022-10-09T00:33:51.707Z,7.50
2022-10-09T00:36:21.951Z,7.50
2022-10-09T00:38:49.539Z,7.60
2022-10-09T00:41:20.263Z,7.50
2022-10-09T00:43:50.719Z,7.50
2022-10-09T00:46:42.144Z,7.50
2022-10-09T00:49:29.438Z,7.60
2022-10-09T00:52:00.094Z,7.50
2022-10-09T00:54:31.225Z,7.50
2022-10-09T00:56:58.388Z,7.50
2022-10-09T00:59:25.843Z,7.40
2022-10-09T01:01:53.569Z,7.40
2022-10-09T01:04:20.643Z,7.40
2022-10-09T01:06:53.384Z,7.30
2022-10-09T01:09:25.955Z,7.30
2022-10-09T01:12:14.843Z,7.20
2022-10-09T01:15:03.428Z,7.10
2022-10-09T01:17:48.666Z,7.00
2022-10-09T01:20:40.490Z,7.00
2022-10-09T01:23:29.196Z,6.90
2022-10-09T01:26:25.134Z,6.90
2022-10-09T01:28:57.319Z,6.90
2022-10-09T01:31:28.572Z,6.90
2022-10-09T01:33:55.843Z,6.90
2022-10-09T01:36:24.135Z,6.90
2022-10-09T01:38:51.776Z,6.90
2022-10-09T01:41:19.502Z,6.90
2022-10-09T01:43:46.509Z,6.90
2022-10-09T01:46:29.816Z,6.90
2022-10-09T01:49:18.323Z,6.90
2022-10-09T01:52:12.444Z,6.90
2022-10-09T01:55:01.131Z,6.90
2022-10-09T01:57:57.244Z,6.80
2022-10-09T02:00:24.727Z,6.80
2022-10-09T02:02:53.558Z,6.80
2022-10-09T02:05:28.782Z,6.80
2022-10-09T02:07:56.772Z,6.70
2022-10-09T02:10:25.122Z,6.70
2022-10-09T02:12:59.130Z,6.70
2022-10-09T02:15:49.636Z,6.70
2022-10-09T02:18:25.367Z,6.70
2022-10-09T02:20:56.935Z,6.60
2022-10-09T02:23:25.935Z,6.70
2022-10-09T02:25:53.674Z,6.60
2022-10-09T02:28:22.120Z,6.60
2022-10-09T02:31:01.573Z,6.60
2022-10-09T02:33:33.867Z,6.60
2022-10-09T02:36:01.975Z,6.50
2022-10-09T02:38:29.236Z,6.50
2022-10-09T02:41:02.589Z,6.50
2022-10-09T02:43:30.036Z,6.50
2022-10-09T02:45:57.009Z,6.50
2022-10-09T02:48:23.940Z,6.50
2022-10-09T02:50:50.886Z,6.40
2022-10-09T02:53:17.852Z,6.40
2022-10-09T02:55:44.835Z,6.40
2022-10-09T02:58:11.799Z,6.40
2022-10-09T03:00:39.504Z,6.40
2022-10-09T03:03:06.518Z,6.40
2022-10-09T03:05:33.697Z,6.30
2022-10-09T03:08:00.641Z,6.30
2022-10-09T03:10:27.697Z,6.30
2022-10-09T03:12:54.650Z,6.30
2022-10-09T03:15:21.894Z,6.20
2022-10-09T03:17:48.850Z,6.20
2022-10-09T03:20:16.000Z,6.20
2022-10-09T03:22:43.256Z,6.20
2022-10-09T03:25:10.274Z,6.10
2022-10-09T03:27:37.591Z,6.10
2022-10-09T03:30:05.172Z,6.10
2022-10-09T03:32:32.256Z,6.10
2022-10-09T03:34:59.301Z,6.10
2022-10-09T03:37:26.307Z,6.10
2022-10-09T03:39:53.458Z,6.10
2022-10-09T03:42:20.441Z,6.10
2022-10-09T03:44:47.444Z,6.10
2022-10-09T03:47:14.415Z,6.20
2022-10-09T03:49:41.395Z,6.10
2022-10-09T03:52:08.535Z,6.10
2022-10-09T03:54:35.486Z,6.10
2022-10-09T03:57:02.453Z,6.10
2022-10-09T03:59:29.434Z,6.00
2022-10-09T04:01:56.476Z,6.00
2022-10-09T04:04:23.449Z,6.10
2022-10-09T04:06:50.386Z,6.00
2022-10-09T04:09:17.324Z,6.00
2022-10-09T04:11:44.399Z,6.00
2022-10-09T04:14:11.443Z,6.00
2022-10-09T04:16:38.474Z,6.00
2022-10-09T04:19:05.443Z,5.90
2022-10-09T04:21:33.970Z,5.90
2022-10-09T04:24:03.452Z,5.90
2022-10-09T04:26:30.451Z,5.90
2022-10-09T04:28:57.412Z,5.80
2022-10-09T04:31:24.475Z,5.80
2022-10-09T04:33:51.491Z,5.80
2022-10-09T04:36:18.854Z,5.80
2022-10-09T04:38:45.784Z,5.90
2022-10-09T04:41:13.470Z,5.70
2022-10-09T04:43:40.422Z,5.70
2022-10-09T04:46:10.366Z,6.00
2022-10-09T04:48:42.051Z,5.70
2022-10-09T04:51:09.911Z,5.70
2022-10-09T04:53:38.030Z,5.60
2022-10-09T04:56:13.177Z,5.60
2022-10-09T04:58:40.832Z,5.60
2022-10-09T05:01:13.795Z,5.60
2022-10-09T05:03:40.813Z,5.60
2022-10-09T05:06:10.027Z,5.60
2022-10-09T05:08:37.677Z,5.50
2022-10-09T05:11:07.917Z,5.60
2022-10-09T05:13:37.675Z,5.60
2022-10-09T05:16:05.387Z,6.10
2022-10-09T05:18:33.503Z,5.60
2022-10-09T05:21:03.253Z,5.60
2022-10-09T05:23:30.217Z,5.60
2022-10-09T05:25:59.497Z,5.80
2022-10-09T05:28:26.830Z,6.10
2022-10-09T05:30:55.073Z,5.60
2022-10-09T05:33:22.419Z,5.90
2022-10-09T05:35:53.960Z,5.50
2022-10-09T05:38:22.023Z,5.50
2022-10-09T05:40:57.214Z,6.40
2022-10-09T05:43:26.275Z,5.50
2022-10-09T05:45:54.207Z,5.50
2022-10-09T05:48:21.782Z,5.50
2022-10-09T05:50:48.929Z,5.50
2022-10-09T05:53:15.871Z,5.50
2022-10-09T05:55:42.879Z,5.50
2022-10-09T05:58:09.845Z,5.50
2022-10-09T06:00:36.859Z,5.50
2022-10-09T06:03:04.079Z,5.50
2022-10-09T06:05:30.984Z,5.50
2022-10-09T06:07:58.006Z,6.30
2022-10-09T06:10:27.959Z,5.50
2022-10-09T06:12:57.184Z,5.60
2022-10-09T06:15:24.105Z,5.60
2022-10-09T06:17:50.970Z,5.60
2022-10-09T06:20:17.888Z,5.60
2022-10-09T06:22:44.771Z,5.70
2022-10-09T06:25:11.676Z,5.70
2022-10-09T06:27:38.540Z,5.70
2022-10-09T06:30:05.852Z,6.20
2022-10-09T06:32:33.130Z,5.80
2022-10-09T06:35:00.151Z,5.80
2022-10-09T06:41:46.467Z,5.80
2022-10-09T06:44:32.105Z,5.90
2022-10-09T06:46:59.008Z,6.60
2022-10-09T06:49:25.985Z,6.00
2022-10-09T06:51:52.933Z,6.00
2022-10-09T06:54:19.887Z,6.10
2022-10-09T06:56:46.815Z,6.10
2022-10-09T06:59:14.051Z,6.20
2022-10-09T07:06:20.478Z,6.30
2022-10-09T07:08:49.912Z,6.30
2022-10-09T07:11:22.468Z,6.40
2022-10-09T07:13:52.105Z,6.40
2022-10-09T07:16:22.625Z,6.50
2022-10-09T07:19:57.526Z,6.60
2022-10-09T07:22:27.031Z,6.70
2022-10-09T07:24:54.103Z,6.70
2022-10-09T07:27:21.032Z,6.80
2022-10-09T07:29:47.994Z,6.90
2022-10-09T07:32:14.885Z,7.00
2022-10-09T07:34:42.196Z,7.00
2022-10-09T07:37:09.216Z,7.10
2022-10-09T07:39:36.467Z,7.20
2022-10-09T07:42:03.915Z,7.30
2022-10-09T07:44:30.933Z,7.50
2022-10-09T07:46:57.894Z,7.50
2022-10-09T07:49:24.843Z,7.70
2022-10-09T07:51:51.773Z,7.80
2022-10-09T07:54:18.807Z,8.00
2022-10-09T07:56:45.800Z,8.00
2022-10-09T07:59:14.780Z,8.20
2022-10-09T08:01:42.200Z,8.30
2022-10-09T08:04:09.447Z,8.50
2022-10-09T08:06:36.460Z,8.60
2022-10-09T08:09:05.625Z,8.70
2022-10-09T08:11:33.049Z,8.90
2022-10-09T08:13:59.993Z,9.00
2022-10-09T08:16:28.096Z,9.20
2022-10-09T08:19:00.100Z,9.40
2022-10-09T08:21:28.582Z,9.50
2022-10-09T08:23:57.458Z,9.70
2022-10-09T08:26:25.980Z,10.00
2022-10-09T08:28:55.425Z,10.20
2022-10-09T08:31:23.753Z,10.40
2022-10-09T08:33:58.241Z,10.60
2022-10-09T08:36:26.013Z,10.90
2022-10-09T08:38:53.375Z,11.10
2022-10-09T08:41:32.685Z,11.40
2022-10-09T08:44:06.754Z,11.60
2022-10-09T08:46:41.496Z,11.90
2022-10-09T08:49:18.900Z,12.10
2022-10-09T08:51:46.370Z,12.40
2022-10-09T08:54:36.775Z,12.50
2022-10-09T08:57:10.136Z,12.70
2022-10-09T08:59:37.110Z,12.90
2022-10-09T09:02:06.759Z,13.10
2022-10-09T09:04:53.800Z,13.30
2022-10-09T09:07:27.838Z,13.60
2022-10-09T09:10:01.820Z,13.80
2022-10-09T09:12:55.531Z,13.90
2022-10-09T09:15:44.913Z,14.00
2022-10-09T09:18:37.626Z,14.20
2022-10-09T09:21:25.816Z,14.30
2022-10-09T09:23:52.738Z,14.30
2022-10-09T09:26:23.019Z,14.40
2022-10-09T09:28:56.210Z,14.50
2022-10-09T09:31:29.867Z,14.60
2022-10-09T09:34:03.256Z,14.70
2022-10-09T09:36:39.268Z,14.90
2022-10-09T09:39:55.691Z,15.10
2022-10-09T09:42:14.578Z,15.20
2022-10-09T09:45:06.601Z,15.30
2022-10-09T09:47:43.410Z,15.40
2022-10-09T09:50:28.446Z,15.40
2022-10-09T09:52:56.905Z,15.50
2022-10-09T09:55:30.467Z,15.70
2022-10-09T09:58:09.008Z,15.70
2022-10-09T10:00:36.494Z,15.80
2022-10-09T10:03:12.492Z,15.90
2022-10-09T10:05:40.528Z,15.90
2022-10-09T10:08:26.532Z,16.10
2022-10-09T10:11:02.670Z,16.30
2022-10-09T10:13:46.581Z,16.40
2022-10-09T10:16:28.704Z,16.50
2022-10-09T10:18:57.763Z,16.70
2022-10-09T10:21:24.966Z,16.80
2022-10-09T10:26:47.565Z,16.90
2022-10-09T10:29:25.154Z,17.00
2022-10-09T10:32:10.123Z,17.10
2022-10-09T10:34:48.959Z,17.30
2022-10-09T10:37:15.836Z,17.30
2022-10-09T10:39:53.049Z,17.40
2022-10-09T10:42:28.610Z,17.40
2022-10-09T10:45:12.621Z,17.40
2022-10-09T10:47:45.085Z,17.40
2022-10-09T10:50:16.389Z,17.50
2022-10-09T10:53:05.896Z,17.50
2022-10-09T10:55:38.603Z,17.50
2022-10-09T10:58:26.871Z,17.50
2022-10-09T11:01:06.130Z,17.50
2022-10-09T11:04:06.397Z,17.60
2022-10-09T11:06:48.352Z,17.70
2022-10-09T11:09:33.522Z,17.80
2022-10-09T11:12:24.882Z,17.90
2022-10-09T11:15:23.422Z,17.90
2022-10-09T11:18:22.242Z,18.00
2022-10-09T11:21:19.593Z,18.10
2022-10-09T11:24:20.006Z,18.10
2022-10-09T11:27:07.121Z,18.20
2022-10-09T11:29:43.815Z,18.30
2022-10-09T11:32:16.628Z,18.40
2022-10-09T11:34:55.179Z,18.50
2022-10-09T11:37:26.966Z,18.60
2022-10-09T11:39:54.931Z,18.60
2022-10-09T11:42:24.000Z,18.70
2022-10-09T11:45:00.580Z,18.80
2022-10-09T11:47:37.555Z,18.90
2022-10-09T11:50:59.095Z,18.80
2022-10-09T11:53:30.095Z,18.90
2022-10-09T11:56:19.614Z,18.90
2022-10-09T11:58:58.689Z,19.00
2022-10-09T12:01:33.323Z,19.10
2022-10-09T12:04:12.509Z,19.10
2022-10-09T12:07:04.504Z,19.10
2022-10-09T12:09:44.088Z,19.20
2022-10-09T12:12:17.135Z,19.20
2022-10-09T12:14:46.760Z,19.20
2022-10-09T12:17:30.867Z,19.20
2022-10-09T12:20:24.865Z,19.20
2022-10-09T12:23:21.883Z,19.00
2022-10-09T12:25:46.510Z,19.00
2022-10-09T12:28:38.021Z,19.00
2022-10-09T12:31:15.553Z,19.00
2022-10-09T12:33:51.558Z,19.00
2022-10-09T12:36:31.094Z,19.00
2022-10-09T12:38:58.359Z,19.00
2022-10-09T12:41:29.038Z,19.00
2022-10-09T12:43:58.102Z,19.00
2022-10-09T12:46:37.840Z,19.10
2022-10-09T12:49:14.298Z,19.10
2022-10-09T12:51:41.218Z,19.20
2022-10-09T12:54:10.020Z,19.30
2022-10-09T12:56:38.860Z,19.40
2022-10-09T12:59:07.468Z,19.50
2022-10-09T13:01:35.727Z,19.40
2022-10-09T13:04:05.621Z,19.20
2022-10-09T13:06:45.091Z,19.00
2022-10-09T13:09:25.863Z,18.90
2022-10-09T13:11:59.879Z,18.80
2022-10-09T13:14:31.762Z,18.80
2022-10-09T13:16:58.722Z,18.70
2022-10-09T13:19:27.765Z,18.70
2022-10-09T13:22:21.038Z,18.70
2022-10-09T13:24:51.781Z,18.60
2022-10-09T13:27:19.683Z,18.60
2022-10-09T13:29:48.252Z,18.60
2022-10-09T13:32:16.848Z,18.70
2022-10-09T13:34:44.122Z,18.60
2022-10-09T13:37:14.120Z,18.60
2022-10-09T13:39:41.485Z,18.60
2022-10-09T13:42:14.720Z,18.50
2022-10-09T13:44:41.660Z,18.50
2022-10-09T13:47:08.962Z,18.50
2022-10-09T13:49:36.024Z,18.50
2022-10-09T13:52:03.518Z,18.40
2022-10-09T13:54:30.412Z,18.40
2022-10-09T13:56:57.324Z,18.20
2022-10-09T13:59:24.690Z,18.10
2022-10-09T14:01:52.857Z,17.90
2022-10-09T14:04:20.314Z,17.70
2022-10-09T14:06:47.229Z,17.60
2022-10-09T14:09:14.295Z,17.50
2022-10-09T14:11:41.216Z,17.50
2022-10-09T14:14:08.316Z,17.40
2022-10-09T14:16:35.277Z,17.40
2022-10-09T14:19:04.567Z,17.30
2022-10-09T14:21:32.007Z,17.20
2022-10-09T14:24:01.267Z,17.20
2022-10-09T14:26:28.708Z,17.00
2022-10-09T14:29:00.625Z,16.90
2022-10-09T14:31:28.227Z,16.80
2022-10-09T14:33:59.812Z,16.70
2022-10-09T14:36:27.157Z,16.60
2022-10-09T14:38:54.202Z,16.50
2022-10-09T14:41:22.128Z,16.40
2022-10-09T14:43:56.194Z,16.30
2022-10-09T14:46:23.926Z,16.20
2022-10-09T14:48:51.548Z,16.10
2022-10-09T14:51:20.969Z,16.00
2022-10-09T14:53:48.593Z,15.90
2022-10-09T14:56:18.119Z,16.00
2022-10-09T14:58:45.356Z,15.90
2022-10-09T15:01:14.827Z,15.80
2022-10-09T15:03:42.499Z,15.80
2022-10-09T15:06:11.655Z,15.70
2022-10-09T15:08:40.479Z,15.60
2022-10-09T15:11:08.829Z,15.60
2022-10-09T15:13:36.372Z,15.50
2022-10-09T15:16:06.359Z,15.50
2022-10-09T15:18:33.890Z,15.50
2022-10-09T15:21:01.057Z,15.40
2022-10-09T15:23:28.826Z,15.30
2022-10-09T15:25:58.270Z,15.10
2022-10-09T15:28:25.787Z,15.10
2022-10-09T15:31:04.403Z,15.00
2022-10-09T15:33:31.866Z,14.90
2022-10-09T15:35:59.089Z,14.90
2022-10-09T15:38:26.437Z,14.80
2022-10-09T15:40:55.716Z,14.80
2022-10-09T15:43:24.958Z,14.70
2022-10-09T15:45:54.241Z,14.70
2022-10-09T15:48:23.693Z,14.70
2022-10-09T15:50:53.766Z,14.60
2022-10-09T15:53:22.716Z,14.60
2022-10-09T15:55:51.954Z,14.50
2022-10-09T15:58:20.129Z,14.50
2022-10-09T16:00:49.894Z,14.50
2022-10-09T16:03:18.195Z,14.50
2022-10-09T16:05:48.987Z,14.40
2022-10-09T16:08:17.638Z,14.40
2022-10-09T16:10:53.588Z,14.30
2022-10-09T16:13:20.565Z,14.30
2022-10-09T16:15:48.508Z,14.20
2022-10-09T16:18:17.548Z,14.20
2022-10-09T16:20:44.984Z,14.00
2022-10-09T16:23:12.430Z,14.00
2022-10-09T16:25:40.518Z,13.90
2022-10-09T16:28:10.116Z,13.80
2022-10-09T16:30:41.991Z,13.80
2022-10-09T16:33:12.670Z,13.70
2022-10-09T16:35:39.909Z,13.60
2022-10-09T16:38:06.995Z,13.50
2022-10-09T16:43:20.950Z,13.30
2022-10-09T16:45:47.924Z,13.20
2022-10-09T16:48:14.891Z,13.20
2022-10-09T16:50:42.521Z,13.10
2022-10-09T16:53:09.996Z,13.00
2022-10-09T16:55:37.136Z,12.90
2022-10-09T16:58:04.228Z,12.80
2022-10-09T17:00:31.274Z,12.80
2022-10-09T17:02:59.404Z,12.70
2022-10-09T17:05:26.664Z,12.70
2022-10-09T17:07:54.677Z,12.60
2022-10-09T17:10:21.732Z,12.50
2022-10-09T17:13:27.919Z,12.40
2022-10-09T17:15:54.934Z,12.40
2022-10-09T17:18:21.918Z,12.30
2022-10-09T17:20:48.990Z,12.20
2022-10-09T17:23:15.940Z,12.10
2022-10-09T17:25:44.212Z,12.10
2022-10-09T17:28:11.459Z,12.00
2022-10-09T17:30:41.663Z,12.00
2022-10-09T17:33:08.663Z,11.90
2022-10-09T17:35:40.439Z,11.80
2022-10-09T17:38:09.167Z,11.80
2022-10-09T17:40:40.502Z,11.80
2022-10-09T17:43:08.485Z,11.70
2022-10-09T17:45:43.050Z,11.70
2022-10-09T17:48:10.495Z,11.70
2022-10-09T17:50:37.574Z,11.60
2022-10-09T17:53:05.348Z,11.60
2022-10-09T17:55:32.389Z,11.50
2022-10-09T17:58:00.558Z,11.50
2022-10-09T18:00:27.525Z,11.40
2022-10-09T18:03:46.972Z,11.40
2022-10-09T18:06:17.733Z,11.30
2022-10-09T18:08:45.564Z,11.30
2022-10-09T18:11:16.427Z,11.20
2022-10-09T18:13:45.091Z,11.20
2022-10-09T18:16:17.715Z,11.10
2022-10-09T18:18:45.127Z,11.10
2022-10-09T18:21:16.957Z,11.00
2022-10-09T18:23:47.843Z,11.00
2022-10-09T18:26:18.160Z,11.00
2022-10-09T18:29:18.886Z,10.90
2022-10-09T18:31:45.971Z,10.90
2022-10-09T18:34:13.310Z,10.90
2022-10-09T18:36:40.683Z,10.80
2022-10-09T18:39:14.171Z,10.80
2022-10-09T18:41:42.308Z,10.80
2022-10-09T18:44:21.542Z,10.80
2022-10-09T18:46:51.889Z,10.80
2022-10-09T18:49:22.662Z,10.70
2022-10-09T18:51:50.460Z,10.70
2022-10-09T18:54:18.678Z,10.70
2022-10-09T18:56:46.418Z,10.70
2022-10-09T18:59:17.000Z,10.60
2022-10-09T19:01:44.064Z,10.70
2022-10-09T19:04:11.275Z,10.70
2022-10-09T19:06:38.502Z,10.60
2022-10-09T19:09:05.504Z,10.60
2022-10-09T19:11:34.342Z,10.60
2022-10-09T19:14:02.084Z,10.60
2022-10-09T19:16:31.243Z,10.60
2022-10-09T19:18:58.524Z,10.60
2022-10-09T19:25:25.955Z,10.60
2022-10-09T19:27:53.192Z,10.50
2022-10-09T19:30:20.201Z,10.50
2022-10-09T19:32:47.504Z,10.50
2022-10-09T19:35:15.425Z,10.50
2022-10-09T19:37:42.421Z,10.50
2022-10-09T19:40:09.932Z,10.40
2022-10-09T19:42:36.954Z,10.40
2022-10-09T19:45:04.678Z,10.40
2022-10-09T19:47:31.741Z,10.40
2022-10-09T19:49:59.656Z,10.40
2022-10-09T19:52:26.693Z,10.30
2022-10-09T19:54:54.354Z,10.30
2022-10-09T19:57:21.407Z,10.30
2022-10-09T19:59:48.729Z,10.30
2022-10-09T20:02:15.689Z,10.30
2022-10-09T20:04:42.644Z,10.20
2022-10-09T20:07:12.716Z,10.20
2022-10-09T20:09:40.079Z,10.20
2022-10-09T20:12:08.193Z,10.20
2022-10-09T20:14:35.171Z,10.10
2022-10-09T20:17:02.151Z,10.10
2022-10-09T20:19:31.533Z,10.00
2022-10-09T20:21:58.509Z,10.00
2022-10-09T20:24:42.081Z,10.00
2022-10-09T20:27:09.127Z,10.00
2022-10-09T20:29:36.273Z,10.00
2022-10-09T20:32:04.033Z,10.00
2022-10-09T20:34:31.497Z,10.00
2022-10-09T20:36:58.796Z,10.00
2022-10-09T20:39:26.261Z,10.00
2022-10-09T20:41:53.440Z,10.00
2022-10-09T20:44:20.709Z,10.00
2022-10-09T20:46:47.856Z,10.00
2022-10-09T20:49:15.253Z,10.00
2022-10-09T20:51:42.608Z,10.00
2022-10-09T20:54:16.208Z,10.00
2022-10-09T20:56:45.020Z,10.00
2022-10-09T20:59:12.763Z,9.90
2022-10-09T21:01:39.803Z,9.90
2022-10-09T21:04:06.819Z,9.90
2022-10-09T21:06:35.903Z,9.90
2022-10-09T21:09:03.789Z,9.80
2022-10-09T21:11:32.555Z,9.80
2022-10-09T21:13:59.538Z,9.80
2022-10-09T21:16:26.586Z,9.80
2022-10-09T21:18:55.399Z,9.80
2022-10-09T21:21:22.715Z,9.70
2022-10-09T21:23:55.257Z,9.70
2022-10-09T21:26:22.939Z,9.60
2022-10-09T21:28:53.341Z,9.70
2022-10-09T21:31:27.517Z,9.60
2022-10-09T21:33:55.082Z,9.60
2022-10-09T21:39:47.777Z,9.60
2022-10-09T21:42:14.731Z,9.50
2022-10-09T21:44:41.779Z,9.50
2022-10-09T21:47:16.407Z,9.50
2022-10-09T21:49:43.391Z,9.40
2022-10-09T21:52:11.132Z,9.40
2022-10-09T21:54:38.124Z,9.40
2022-10-09T21:57:05.122Z,9.40
2022-10-09T21:59:32.103Z,9.40
2022-10-09T22:01:59.078Z,9.40
2022-10-09T22:04:26.105Z,9.40
2022-10-09T22:06:53.134Z,9.40
2022-10-09T22:09:20.191Z,9.30
2022-10-09T22:11:47.283Z,9.30
2022-10-09T22:14:14.850Z,9.30
2022-10-09T22:16:41.861Z,9.30
2022-10-09T22:19:09.054Z,9.30
2022-10-09T22:21:36.087Z,9.30
2022-10-09T22:24:03.177Z,9.20
2022-10-09T22:26:30.145Z,9.20
2022-10-09T22:28:57.106Z,9.20
2022-10-09T22:35:45.798Z,9.00
2022-10-09T22:38:12.684Z,9.00
2022-10-09T22:40:42.737Z,8.90
2022-10-09T22:43:12.022Z,8.90
2022-10-09T22:45:39.023Z,8.90
2022-10-09T22:48:08.619Z,8.90
2022-10-09T22:50:37.019Z,8.80
2022-10-09T22:53:04.023Z,8.80
2022-10-09T22:55:30.992Z,8.80
2022-10-09T22:57:57.969Z,8.70
2022-10-09T23:00:24.935Z,8.70
2022-10-09T23:02:52.420Z,8.70
2022-10-09T23:05:19.569Z,8.60
2022-10-09T23:07:47.219Z,8.60
2022-10-09T23:10:14.205Z,8.60
2022-10-09T23:12:41.150Z,8.60
2022-10-09T23:15:08.415Z,8.60
2022-10-09T23:17:35.398Z,8.60
2022-10-09T23:20:02.362Z,8.60
2022-10-09T23:22:29.352Z,8.60
2022-10-09T23:24:56.310Z,8.60
2022-10-09T23:27:23.286Z,8.60
2022-10-09T23:29:50.275Z,8.60
2022-10-09T23:32:17.294Z,8.50
2022-10-09T23:34:44.348Z,8.50
2022-10-09T23:37:11.353Z,8.50
2022-10-09T23:39:38.403Z,8.40
2022-10-09T23:42:05.446Z,8.40
2022-10-09T23:44:32.393Z,8.40
2022-10-09T23:46:59.378Z,8.30
2022-10-09T23:49:26.333Z,8.30
2022-10-09T23:51:53.531Z,8.30
2022-10-09T23:54:20.470Z,8.20
2022-10-09T23:56:47.388Z,8.20
2022-10-09T23:59:14.343Z,8.50
